Swift Arrow — WAFK — position and weather

sailwx.info

Track history (hours):
 
Tides and Currents Weather Stations Pressure Air Temp Water Temp Dewpoint Dewpoint Depression Visibility Wind Speed Wind Dir Waves Ship Positions

Swift Arrow

Owner: ARROW LAUNCH SERVICE INC, Port Angeles, WA. More information available from US FCC via Universal Licensing System and Coast Guard Vessel Documentation Center.

Last reported at 2017-Jul-20 17:32 UTC. Time now 2017-Jul-21 00:51 UTC.
Position N 47°15' W 122°26'.

Type: Port tender. MMSI: 369021000.

Date/timePositionNaut miles runAvg speedWind from/ knotsBaromVisibWave heightAir tempDewpointWater temp
2017-Jul-20 17:32N 47°15' W 122°26'0 4.5
2017-Jul-20 17:30N 47°16' W 122°26'0 0.1
2017-Jul-20 16:27N 47°16' W 122°26'0 0.0
2017-Jul-20 16:00N 47°16' W 122°26'0 0.0
2017-Jul-20 15:21N 47°16' W 122°26'1 4.2
2017-Jul-20 15:00N 47°17' W 122°26'2 0.1
2017-Jul-19 15:31N 47°15' W 122°26'0 2.2
2017-Jul-19 15:30N 47°15' W 122°26'4 8.2
2017-Jul-19 15:01N 47°18' W 122°30'4 0.3
2017-Jul-19 01:44N 47°15' W 122°26'2 7.5
2017-Jul-19 01:30N 47°17' W 122°26'0 0.0
2017-Jul-19 01:00N 47°17' W 122°26'1 0.2
2017-Jul-18 19:23N 47°17' W 122°25'2 0.1
2017-Jul-17 14:32N 47°15' W 122°26'0 4.4
2017-Jul-17 14:31N 47°15' W 122°26'1 2.2
2017-Jul-17 14:00N 47°17' W 122°26'1 1.3
2017-Jul-17 13:30N 47°16' W 122°26'1 0.1
2017-Jul-17 06:13N 47°15' W 122°26'2 8.2
2017-Jul-17 05:58N 47°17' W 122°25'2 3.9
2017-Jul-17 05:29N 47°15' W 122°26'0 0.1
2017-Jul-17 00:51N 47°15' W 122°26'2 3.8
2017-Jul-17 00:18N 47°17' W 122°25'0 0.0
2017-Jul-17 00:00N 47°17' W 122°25'2 2.4
2017-Jul-16 23:05N 47°15' W 122°26'1 5.8
2017-Jul-16 23:00N 47°16' W 122°26'1 1.2
2017-Jul-16 22:27N 47°16' W 122°26'1 0.3
2017-Jul-16 19:57N 47°17' W 122°26'1 2.0
2017-Jul-16 19:30N 47°16' W 122°26'0 0.9
2017-Jul-16 19:00N 47°16' W 122°27'1 2.0
2017-Jul-16 18:31N 47°16' W 122°26'1 2.1
2017-Jul-16 18:00N 47°16' W 122°27'1 1.5
2017-Jul-16 17:30N 47°16' W 122°26'1 1.4
2017-Jul-16 17:00N 47°16' W 122°27'0 0.1
2017-Jul-16 16:30N 47°17' W 122°27'1 0.3
2017-Jul-16 12:25N 47°15' W 122°26'1 3.2
2017-Jul-16 12:00N 47°17' W 122°27'0 0.7
2017-Jul-16 11:30N 47°16' W 122°27'1 0.4
2017-Jul-16 08:46N 47°15' W 122°26'2 5.6
2017-Jul-16 08:30N 47°17' W 122°25'1 1.3
2017-Jul-16 07:55N 47°17' W 122°26'1 0.1
2017-Jul-15 22:14N 47°15' W 122°26'2 8.0
2017-Jul-15 22:00N 47°17' W 122°27'0 0.8
2017-Jul-15 21:30N 47°17' W 122°28'2 0.1
2017-Jul-14 21:56N 47°15' W 122°26'4 9.6
2017-Jul-14 21:30N 47°18' W 122°30'0 0.0
2017-Jul-14 21:00N 47°18' W 122°30'0 0.0
2017-Jul-14 20:30N 47°18' W 122°30'0 0.2
2017-Jul-14 20:00N 47°18' W 122°30'3 0.6
2017-Jul-14 15:05N 47°17' W 122°26'115.1
2017-Jul-14 15:00N 47°16' W 122°26'  
2017-Jul-12 01:53N 47°15' W 122°26'410.9
2017-Jul-12 01:30N 47°18' W 122°30'1 0.2
2017-Jul-11 22:33N 47°18' W 122°31'0 0.9
2017-Jul-11 22:30N 47°18' W 122°31'4 8.3
2017-Jul-11 22:00N 47°16' W 122°26'1 0.2
2017-Jul-11 19:44N 47°15' W 122°26'1 5.1
2017-Jul-11 19:31N 47°16' W 122°26'1 1.1
2017-Jul-11 19:00N 47°16' W 122°26'0 0.1
2017-Jul-11 16:39N 47°16' W 122°26'1 4.5
2017-Jul-11 16:30N 47°16' W 122°26'1 0.1
2017-Jul-10 19:11N 47°15' W 122°26'1 7.1
2017-Jul-10 19:01N 47°16' W 122°26'1 1.0
2017-Jul-10 18:31N 47°17' W 122°26'  
Track history (hours):
 
Tides and Currents Weather Stations Pressure Air Temp Water Temp Dewpoint Dewpoint Depression Visibility Wind Speed Wind Dir Waves Ship Positions

Swift Arrow

Owner: ARROW LAUNCH SERVICE INC, Port Angeles, WA. More information available from US FCC via Universal Licensing System and Coast Guard Vessel Documentation Center.

Last reported at 2017-Jul-20 17:32 UTC. Time now 2017-Jul-21 00:51 UTC.
Position N 47°15' W 122°26'.

Type: Port tender. MMSI: 369021000.

Date/timePositionNaut miles runAvg speedWind from/ knotsBaromVisibWave heightAir tempDewpointWater temp
2017-Jul-20 17:32N 47°15' W 122°26'0 4.5
2017-Jul-20 17:30N 47°16' W 122°26'0 0.1
2017-Jul-20 16:27N 47°16' W 122°26'0 0.0
2017-Jul-20 16:00N 47°16' W 122°26'0 0.0
2017-Jul-20 15:21N 47°16' W 122°26'1 4.2
2017-Jul-20 15:00N 47°17' W 122°26'2 0.1
2017-Jul-19 15:31N 47°15' W 122°26'0 2.2
2017-Jul-19 15:30N 47°15' W 122°26'4 8.2
2017-Jul-19 15:01N 47°18' W 122°30'4 0.3
2017-Jul-19 01:44N 47°15' W 122°26'2 7.5
2017-Jul-19 01:30N 47°17' W 122°26'0 0.0
2017-Jul-19 01:00N 47°17' W 122°26'1 0.2
2017-Jul-18 19:23N 47°17' W 122°25'2 0.1
2017-Jul-17 14:32N 47°15' W 122°26'0 4.4
2017-Jul-17 14:31N 47°15' W 122°26'1 2.2
2017-Jul-17 14:00N 47°17' W 122°26'1 1.3
2017-Jul-17 13:30N 47°16' W 122°26'1 0.1
2017-Jul-17 06:13N 47°15' W 122°26'2 8.2
2017-Jul-17 05:58N 47°17' W 122°25'2 3.9
2017-Jul-17 05:29N 47°15' W 122°26'0 0.1
2017-Jul-17 00:51N 47°15' W 122°26'2 3.8
2017-Jul-17 00:18N 47°17' W 122°25'0 0.0
2017-Jul-17 00:00N 47°17' W 122°25'2 2.4
2017-Jul-16 23:05N 47°15' W 122°26'1 5.8
2017-Jul-16 23:00N 47°16' W 122°26'1 1.2
2017-Jul-16 22:27N 47°16' W 122°26'1 0.3
2017-Jul-16 19:57N 47°17' W 122°26'1 2.0
2017-Jul-16 19:30N 47°16' W 122°26'0 0.9
2017-Jul-16 19:00N 47°16' W 122°27'1 2.0
2017-Jul-16 18:31N 47°16' W 122°26'1 2.1
2017-Jul-16 18:00N 47°16' W 122°27'1 1.5
2017-Jul-16 17:30N 47°16' W 122°26'1 1.4
2017-Jul-16 17:00N 47°16' W 122°27'0 0.1
2017-Jul-16 16:30N 47°17' W 122°27'1 0.3
2017-Jul-16 12:25N 47°15' W 122°26'1 3.2
2017-Jul-16 12:00N 47°17' W 122°27'0 0.7
2017-Jul-16 11:30N 47°16' W 122°27'1 0.4
2017-Jul-16 08:46N 47°15' W 122°26'2 5.6
2017-Jul-16 08:30N 47°17' W 122°25'1 1.3
2017-Jul-16 07:55N 47°17' W 122°26'1 0.1
2017-Jul-15 22:14N 47°15' W 122°26'2 8.0
2017-Jul-15 22:00N 47°17' W 122°27'0 0.8
2017-Jul-15 21:30N 47°17' W 122°28'2 0.1
2017-Jul-14 21:56N 47°15' W 122°26'4 9.6
2017-Jul-14 21:30N 47°18' W 122°30'0 0.0
2017-Jul-14 21:00N 47°18' W 122°30'0 0.0
2017-Jul-14 20:30N 47°18' W 122°30'0 0.2
2017-Jul-14 20:00N 47°18' W 122°30'3 0.6
2017-Jul-14 15:05N 47°17' W 122°26'115.1
2017-Jul-14 15:00N 47°16' W 122°26'  
2017-Jul-12 01:53N 47°15' W 122°26'410.9
2017-Jul-12 01:30N 47°18' W 122°30'1 0.2
2017-Jul-11 22:33N 47°18' W 122°31'0 0.9
2017-Jul-11 22:30N 47°18' W 122°31'4 8.3
2017-Jul-11 22:00N 47°16' W 122°26'1 0.2
2017-Jul-11 19:44N 47°15' W 122°26'1 5.1
2017-Jul-11 19:31N 47°16' W 122°26'1 1.1
2017-Jul-11 19:00N 47°16' W 122°26'0 0.1
2017-Jul-11 16:39N 47°16' W 122°26'1 4.5
2017-Jul-11 16:30N 47°16' W 122°26'1 0.1
2017-Jul-10 19:11N 47°15' W 122°26'1 7.1
2017-Jul-10 19:01N 47°16' W 122°26'1 1.0
2017-Jul-10 18:31N 47°17' W 122°26'  

Dump ship's entire track history